createdAt,value
2022-12-15T00:00:40.040Z,94.70
2022-12-15T00:01:40.008Z,94.59
2022-12-15T00:02:40.108Z,94.49
2022-12-15T00:03:40.120Z,94.49
2022-12-15T00:04:39.963Z,94.49
2022-12-15T00:05:39.960Z,94.49
2022-12-15T00:06:39.969Z,94.59
2022-12-15T00:07:39.951Z,94.70
2022-12-15T00:08:39.964Z,94.70
2022-12-15T00:09:47.600Z,94.70
2022-12-15T00:10:39.938Z,94.70
2022-12-15T00:11:39.907Z,94.74
2022-12-15T00:12:39.901Z,94.74
2022-12-15T00:13:39.933Z,94.64
2022-12-15T00:14:39.884Z,94.74
2022-12-15T00:15:39.943Z,94.74
2022-12-15T00:16:39.824Z,94.74
2022-12-15T00:18:35.486Z,94.53
2022-12-15T00:19:36.485Z,94.42
2022-12-15T00:20:36.460Z,94.32
2022-12-15T00:21:36.685Z,94.21
2022-12-15T00:22:36.439Z,94.10
2022-12-15T00:23:36.438Z,94.21
2022-12-15T00:24:36.427Z,94.32
2022-12-15T00:25:36.435Z,94.36
2022-12-15T00:26:36.426Z,94.53
2022-12-15T00:27:36.409Z,95.06
2022-12-15T00:28:36.408Z,95.38
2022-12-15T00:29:36.395Z,95.70
2022-12-15T00:30:36.382Z,96.01
2022-12-15T00:31:36.439Z,96.12
2022-12-15T00:32:36.370Z,96.33
2022-12-15T00:33:36.345Z,96.44
2022-12-15T00:34:36.316Z,96.55
2022-12-15T00:35:36.330Z,96.65
2022-12-15T00:36:36.292Z,96.55
2022-12-15T00:37:36.297Z,96.65
2022-12-15T00:38:36.293Z,96.55
2022-12-15T00:39:36.344Z,96.55
2022-12-15T00:40:36.275Z,96.33
2022-12-15T00:41:36.250Z,96.23
2022-12-15T00:42:36.245Z,96.12
2022-12-15T00:43:36.457Z,95.84
2022-12-15T00:44:36.211Z,95.63
2022-12-15T00:45:36.234Z,95.53
2022-12-15T00:46:36.266Z,95.31
2022-12-15T00:47:36.195Z,95.21
2022-12-15T00:48:36.197Z,95.21
2022-12-15T00:49:36.164Z,95.10
2022-12-15T00:50:36.179Z,95.21
2022-12-15T00:51:36.160Z,95.36
2022-12-15T00:52:36.136Z,95.25
2022-12-15T00:53:36.143Z,95.36
2022-12-15T00:54:36.143Z,95.36
2022-12-15T00:55:36.117Z,95.36
2022-12-15T00:56:36.112Z,95.47
2022-12-15T00:57:36.105Z,95.57
2022-12-15T00:58:36.079Z,95.57
2022-12-15T00:59:42.607Z,95.67
2022-12-15T01:00:36.062Z,95.78
2022-12-15T01:01:36.237Z,96.00
2022-12-15T01:02:36.284Z,96.20
2022-12-15T01:03:36.678Z,96.31
2022-12-15T01:04:36.027Z,96.31
2022-12-15T01:05:36.023Z,96.31
2022-12-15T01:06:36.016Z,96.31
2022-12-15T01:07:36.000Z,96.63
2022-12-15T01:08:35.971Z,96.63
2022-12-15T01:09:35.989Z,96.63
2022-12-15T01:10:36.030Z,96.63
2022-12-15T01:11:35.960Z,96.84
2022-12-15T01:12:35.952Z,96.95
2022-12-15T01:13:35.925Z,96.95
2022-12-15T01:14:35.928Z,96.73
2022-12-15T01:15:35.899Z,96.73
2022-12-15T01:16:36.057Z,96.63
2022-12-15T01:17:35.908Z,96.63
2022-12-15T01:18:35.870Z,96.63
2022-12-15T01:19:35.872Z,96.46
2022-12-15T01:20:35.878Z,96.04
2022-12-15T01:21:35.837Z,95.93
2022-12-15T01:22:35.876Z,96.14
2022-12-15T01:23:35.843Z,96.36
2022-12-15T01:24:35.809Z,96.57
2022-12-15T01:25:35.830Z,96.57
2022-12-15T01:26:35.816Z,96.46
2022-12-15T01:27:35.775Z,96.36
2022-12-15T01:28:35.771Z,96.36
2022-12-15T01:29:42.284Z,96.36
2022-12-15T01:30:35.770Z,96.25
2022-12-15T01:31:35.787Z,96.25
2022-12-15T01:32:35.727Z,96.19
2022-12-15T01:33:35.708Z,96.08
2022-12-15T01:34:35.704Z,96.08
2022-12-15T01:35:35.700Z,96.19
2022-12-15T01:36:35.705Z,96.19
2022-12-15T01:37:35.686Z,96.08
2022-12-15T01:38:35.703Z,95.97
2022-12-15T01:39:35.652Z,95.97
2022-12-15T01:40:35.641Z,95.87
2022-12-15T01:41:35.708Z,95.97
2022-12-15T01:42:35.639Z,96.08
2022-12-15T01:43:35.927Z,96.19
2022-12-15T01:44:35.630Z,96.40
2022-12-15T01:45:35.612Z,96.50
2022-12-15T01:46:35.626Z,96.50
2022-12-15T01:47:35.605Z,96.40
2022-12-15T01:48:35.604Z,96.30
2022-12-15T01:49:42.057Z,96.19
2022-12-15T01:50:35.568Z,96.40
2022-12-15T01:51:35.542Z,96.50
2022-12-15T01:52:35.527Z,96.40
2022-12-15T01:53:35.548Z,96.30
2022-12-15T01:54:35.512Z,96.30
2022-12-15T01:55:35.505Z,96.19
2022-12-15T01:56:37.725Z,96.23
2022-12-15T01:57:35.464Z,96.12
2022-12-15T01:58:35.475Z,96.01
2022-12-15T01:59:35.443Z,95.81
2022-12-15T02:00:35.509Z,95.70
2022-12-15T02:01:35.562Z,95.59
2022-12-15T02:02:40.005Z,95.48
2022-12-15T02:03:35.876Z,95.48
2022-12-15T02:04:35.412Z,95.48
2022-12-15T02:05:35.395Z,95.70
2022-12-15T02:06:35.397Z,95.81
2022-12-15T02:07:35.406Z,95.91
2022-12-15T02:08:35.364Z,96.12
2022-12-15T02:09:35.337Z,96.34
2022-12-15T02:10:35.339Z,96.44
2022-12-15T02:11:35.346Z,96.40
2022-12-15T02:12:35.390Z,96.23
2022-12-15T02:13:35.315Z,96.01
2022-12-15T02:14:35.317Z,96.12
2022-12-15T02:15:35.292Z,96.12
2022-12-15T02:16:35.323Z,96.01
2022-12-15T02:17:35.281Z,95.91
2022-12-15T02:18:35.254Z,95.81
2022-12-15T02:19:41.775Z,95.70
2022-12-15T02:20:35.273Z,95.59
2022-12-15T02:21:35.237Z,95.42
2022-12-15T02:22:35.229Z,95.10
2022-12-15T02:23:35.356Z,94.89
2022-12-15T02:24:35.208Z,94.57
2022-12-15T02:25:35.198Z,94.46
2022-12-15T02:26:35.216Z,94.51
2022-12-15T02:27:35.170Z,94.40
2022-12-15T02:28:35.185Z,94.40
2022-12-15T02:29:35.128Z,94.51
2022-12-15T02:30:35.157Z,94.51
2022-12-15T02:31:35.211Z,94.40
2022-12-15T02:32:35.106Z,94.51
2022-12-15T02:33:35.306Z,94.82
2022-12-15T02:34:35.095Z,95.15
2022-12-15T02:35:35.077Z,95.25
2022-12-15T02:36:35.068Z,95.36
2022-12-15T02:37:41.572Z,95.25
2022-12-15T02:38:35.057Z,95.15
2022-12-15T02:39:35.028Z,95.25
2022-12-15T02:40:35.052Z,95.25
2022-12-15T02:41:35.027Z,95.36
2022-12-15T02:42:35.037Z,95.68
2022-12-15T02:43:35.112Z,95.85
2022-12-15T02:44:34.991Z,95.95
2022-12-15T02:45:35.094Z,95.85
2022-12-15T02:46:34.993Z,95.85
2022-12-15T02:47:34.980Z,96.00
2022-12-15T02:48:34.955Z,96.06
2022-12-15T02:49:34.949Z,96.17
2022-12-15T02:50:34.931Z,96.38
2022-12-15T02:51:34.906Z,96.48
2022-12-15T02:52:34.944Z,96.38
2022-12-15T02:53:35.068Z,96.27
2022-12-15T02:54:34.908Z,96.17
2022-12-15T02:55:34.905Z,96.17
2022-12-15T02:56:34.887Z,96.17
2022-12-15T02:57:34.879Z,96.17
2022-12-15T02:58:34.881Z,96.06
2022-12-15T02:59:34.858Z,95.74
2022-12-15T03:00:34.846Z,95.47
2022-12-15T03:01:34.952Z,95.36
2022-12-15T03:02:34.977Z,94.82
2022-12-15T03:03:35.443Z,94.61
2022-12-15T03:04:34.778Z,94.51
2022-12-15T03:05:34.799Z,94.55
2022-12-15T03:06:34.787Z,94.55
2022-12-15T03:07:34.815Z,94.44
2022-12-15T03:08:34.745Z,94.82
2022-12-15T03:09:34.777Z,95.25
2022-12-15T03:10:34.711Z,95.47
2022-12-15T03:11:34.717Z,95.36
2022-12-15T03:12:34.725Z,95.25
2022-12-15T03:13:35.003Z,95.25
2022-12-15T03:14:34.749Z,94.93
2022-12-15T03:15:35.769Z,94.87
2022-12-15T03:16:34.746Z,94.72
2022-12-15T03:17:34.650Z,94.55
2022-12-15T03:18:34.630Z,94.34
2022-12-15T03:19:34.675Z,94.23
2022-12-15T03:20:34.605Z,94.12
2022-12-15T03:21:34.644Z,94.02
2022-12-15T03:22:34.623Z,94.02
2022-12-15T03:23:34.662Z,94.23
2022-12-15T03:24:34.601Z,94.34
2022-12-15T03:25:34.630Z,94.34
2022-12-15T03:26:34.567Z,94.34
2022-12-15T03:27:34.578Z,94.12
2022-12-15T03:28:34.749Z,93.95
2022-12-15T03:29:34.566Z,93.95
2022-12-15T03:30:34.562Z,93.74
2022-12-15T03:31:34.610Z,93.85
2022-12-15T03:32:34.529Z,93.85
2022-12-15T03:33:35.190Z,93.74
2022-12-15T03:34:34.499Z,93.68
2022-12-15T03:35:34.475Z,93.68
2022-12-15T03:36:34.445Z,93.78
2022-12-15T03:37:34.468Z,93.99
2022-12-15T03:38:34.487Z,94.21
2022-12-15T03:39:34.428Z,94.31
2022-12-15T03:40:34.531Z,94.31
2022-12-15T03:41:34.396Z,94.53
2022-12-15T03:42:34.390Z,94.85
2022-12-15T03:43:34.705Z,94.95
2022-12-15T03:44:34.430Z,95.17
2022-12-15T03:45:34.534Z,95.17
2022-12-15T03:46:34.385Z,95.28
2022-12-15T03:47:34.333Z,95.65
2022-12-15T03:48:34.353Z,95.76
2022-12-15T03:50:25.455Z,95.65
2022-12-15T03:51:26.432Z,95.65
2022-12-15T03:52:26.415Z,95.59
2022-12-15T03:53:26.432Z,95.38
2022-12-15T03:54:26.427Z,95.28
2022-12-15T03:55:26.407Z,95.06
2022-12-15T03:56:26.368Z,94.95
2022-12-15T03:57:26.368Z,94.74
2022-12-15T03:58:26.370Z,94.74
2022-12-15T03:59:26.372Z,94.85
2022-12-15T04:00:26.343Z,94.85
2022-12-15T04:01:26.512Z,94.85
2022-12-15T04:02:26.542Z,94.95
2022-12-15T04:03:26.361Z,94.85
2022-12-15T04:04:26.292Z,94.74
2022-12-15T04:05:26.291Z,94.53
2022-12-15T04:06:26.271Z,94.42
2022-12-15T04:07:26.278Z,94.31
2022-12-15T04:08:26.282Z,94.31
2022-12-15T04:09:26.233Z,94.42
2022-12-15T04:10:34.772Z,94.74
2022-12-15T04:11:26.237Z,95.23
2022-12-15T04:12:26.231Z,95.55
2022-12-15T04:13:26.203Z,95.65
2022-12-15T04:14:26.217Z,95.65
2022-12-15T04:15:26.174Z,95.65
2022-12-15T04:16:26.275Z,95.55
2022-12-15T04:17:26.157Z,95.55
2022-12-15T04:18:26.156Z,95.51
2022-12-15T04:19:26.132Z,95.72
2022-12-15T04:20:26.172Z,95.83
2022-12-15T04:21:26.141Z,95.72
2022-12-15T04:22:26.106Z,95.61
2022-12-15T04:23:26.095Z,95.45
2022-12-15T04:24:26.092Z,95.12
2022-12-15T04:25:26.072Z,94.91
2022-12-15T04:26:26.101Z,94.70
2022-12-15T04:27:26.060Z,94.48
2022-12-15T04:28:26.081Z,94.17
2022-12-15T04:29:26.048Z,94.06
2022-12-15T04:30:26.056Z,93.85
2022-12-15T04:31:26.100Z,93.85
2022-12-15T04:32:26.025Z,93.85
2022-12-15T04:33:30.573Z,93.95
2022-12-15T04:34:25.985Z,94.06
2022-12-15T04:35:25.995Z,94.17
2022-12-15T04:36:25.961Z,94.06
2022-12-15T04:37:25.949Z,94.06
2022-12-15T04:38:25.974Z,94.27
2022-12-15T04:39:25.925Z,94.48
2022-12-15T04:40:32.475Z,94.55
2022-12-15T04:41:25.925Z,94.76
2022-12-15T04:42:25.920Z,94.98
2022-12-15T04:43:25.911Z,94.98
2022-12-15T04:44:25.882Z,95.08
2022-12-15T04:45:25.882Z,95.19
2022-12-15T04:46:25.972Z,95.36
2022-12-15T04:47:25.914Z,95.36
2022-12-15T04:48:25.858Z,95.47
2022-12-15T04:49:25.846Z,95.57
2022-12-15T04:50:25.816Z,95.64
2022-12-15T04:51:25.805Z,95.64
2022-12-15T04:52:25.821Z,95.42
2022-12-15T04:53:25.791Z,95.21
2022-12-15T04:54:25.794Z,95.00
2022-12-15T04:55:25.784Z,94.78
2022-12-15T04:56:25.775Z,94.68
2022-12-15T04:57:25.759Z,94.74
2022-12-15T04:58:25.737Z,94.64
2022-12-15T04:59:25.762Z,94.53
2022-12-15T05:00:32.256Z,94.53
2022-12-15T05:01:25.812Z,94.53
2022-12-15T05:02:25.801Z,94.49
2022-12-15T05:03:25.683Z,94.70
2022-12-15T05:04:25.744Z,94.70
2022-12-15T05:05:25.678Z,94.76
2022-12-15T05:06:25.686Z,94.76
2022-12-15T05:07:25.633Z,94.76
2022-12-15T05:08:25.651Z,94.76
2022-12-15T05:09:25.613Z,94.76
2022-12-15T05:10:25.630Z,94.65
2022-12-15T05:11:25.611Z,94.62
2022-12-15T05:12:25.600Z,94.72
2022-12-15T05:13:25.588Z,94.72
2022-12-15T05:14:25.571Z,94.62
2022-12-15T05:15:25.645Z,94.51
2022-12-15T05:16:25.650Z,94.40
2022-12-15T05:17:25.546Z,94.29
2022-12-15T05:18:25.653Z,94.29
2022-12-15T05:19:25.545Z,94.46
2022-12-15T05:20:25.505Z,94.68
2022-12-15T05:21:25.487Z,94.57
2022-12-15T05:22:26.348Z,94.46
2022-12-15T05:23:25.497Z,94.57
2022-12-15T05:24:25.480Z,94.57
2022-12-15T05:25:25.445Z,94.57
2022-12-15T05:26:25.448Z,94.36
2022-12-15T05:27:25.449Z,94.00
2022-12-15T05:28:25.441Z,94.00
2022-12-15T05:29:25.431Z,94.10
2022-12-15T05:30:25.408Z,94.00
2022-12-15T05:31:25.457Z,94.10
2022-12-15T05:32:25.370Z,94.32
2022-12-15T05:33:25.389Z,94.42
2022-12-15T05:34:25.388Z,94.38
2022-12-15T05:35:25.474Z,94.38
2022-12-15T05:36:25.355Z,94.27
2022-12-15T05:37:25.376Z,94.17
2022-12-15T05:38:25.312Z,94.06
2022-12-15T05:39:25.309Z,94.17
2022-12-15T05:40:25.324Z,94.23
2022-12-15T05:41:25.312Z,94.23
2022-12-15T05:42:26.198Z,94.45
2022-12-15T05:43:26.702Z,94.65
2022-12-15T05:44:25.270Z,94.98
2022-12-15T05:45:25.272Z,95.18
2022-12-15T05:46:25.352Z,95.29
2022-12-15T05:47:25.245Z,95.36
2022-12-15T05:48:25.224Z,95.36
2022-12-15T05:49:25.256Z,95.46
2022-12-15T05:50:31.715Z,95.46
2022-12-15T05:51:25.198Z,95.57
2022-12-15T05:52:25.172Z,95.67
2022-12-15T05:53:25.165Z,95.63
2022-12-15T05:54:25.162Z,95.63
2022-12-15T05:55:25.153Z,95.63
2022-12-15T05:56:25.170Z,95.63
2022-12-15T05:57:25.130Z,95.53
2022-12-15T05:58:25.128Z,95.42
2022-12-15T05:59:25.117Z,95.31
2022-12-15T06:00:25.112Z,95.00
2022-12-15T06:01:25.160Z,94.89
2022-12-15T06:02:25.102Z,94.89
2022-12-15T06:03:25.088Z,94.89
2022-12-15T06:04:25.170Z,94.85
2022-12-15T06:05:25.078Z,94.74
2022-12-15T06:06:25.058Z,94.64
2022-12-15T06:07:25.024Z,94.53
2022-12-15T06:08:25.009Z,94.53
2022-12-15T06:09:25.012Z,94.64
2022-12-15T06:10:31.545Z,94.74
2022-12-15T06:11:25.042Z,94.95
2022-12-15T06:12:24.996Z,95.06
2022-12-15T06:13:24.978Z,95.17
2022-12-15T06:14:24.956Z,95.37
2022-12-15T06:15:24.947Z,95.48
2022-12-15T06:16:25.023Z,95.44
2022-12-15T06:17:24.913Z,95.44
2022-12-15T06:18:24.908Z,95.23
2022-12-15T06:19:24.887Z,95.01
2022-12-15T06:20:24.942Z,95.01
2022-12-15T06:21:24.883Z,95.12
2022-12-15T06:22:24.898Z,95.33
2022-12-15T06:23:24.868Z,95.44
2022-12-15T06:24:24.833Z,95.54
2022-12-15T06:25:24.880Z,95.65
2022-12-15T06:26:24.839Z,95.54
2022-12-15T06:27:24.825Z,95.39
2022-12-15T06:28:24.823Z,95.29
2022-12-15T06:29:24.811Z,95.29
2022-12-15T06:30:31.649Z,95.18
2022-12-15T06:31:24.825Z,95.07
2022-12-15T06:32:24.773Z,94.97
2022-12-15T06:33:24.778Z,94.97
2022-12-15T06:34:24.723Z,94.97
2022-12-15T06:35:24.731Z,94.87
2022-12-15T06:36:24.719Z,94.87
2022-12-15T06:37:24.701Z,94.87
2022-12-15T06:38:24.690Z,94.76
2022-12-15T06:39:24.702Z,94.76
2022-12-15T06:40:24.696Z,94.97
2022-12-15T06:41:24.686Z,94.93
2022-12-15T06:42:24.678Z,95.25
2022-12-15T06:43:24.634Z,95.25
2022-12-15T06:44:24.641Z,95.25
2022-12-15T06:45:24.612Z,95.25
2022-12-15T06:46:24.739Z,95.25
2022-12-15T06:47:24.615Z,95.35
2022-12-15T06:48:24.614Z,95.35
2022-12-15T06:49:24.567Z,95.35
2022-12-15T06:50:24.547Z,95.14
2022-12-15T06:51:24.616Z,95.14
2022-12-15T06:52:24.535Z,95.25
2022-12-15T06:53:24.529Z,95.25
2022-12-15T06:54:24.533Z,95.25
2022-12-15T06:55:24.521Z,95.25
2022-12-15T06:56:30.715Z,95.46
2022-12-15T06:57:24.498Z,95.35
2022-12-15T06:58:24.497Z,95.14
2022-12-15T06:59:24.465Z,94.89
2022-12-15T07:00:24.463Z,94.72
2022-12-15T07:01:24.797Z,94.72
2022-12-15T07:02:28.797Z,94.72
2022-12-15T07:03:24.817Z,94.78
2022-12-15T07:04:24.497Z,94.89
2022-12-15T07:05:24.398Z,94.99
2022-12-15T07:06:24.390Z,95.10
2022-12-15T07:07:24.398Z,95.20
2022-12-15T07:08:30.380Z,95.31
2022-12-15T07:09:24.377Z,95.62
2022-12-15T07:10:24.354Z,95.73
2022-12-15T07:11:24.351Z,95.73
2022-12-15T07:12:24.325Z,95.79
2022-12-15T07:13:24.348Z,95.79
2022-12-15T07:14:24.311Z,95.90
2022-12-15T07:15:24.536Z,95.90
2022-12-15T07:16:24.332Z,96.11
2022-12-15T07:17:24.313Z,96.22
2022-12-15T07:18:24.266Z,96.22
2022-12-15T07:19:24.286Z,96.43
2022-12-15T07:20:28.780Z,96.39
2022-12-15T07:21:24.243Z,96.49
2022-12-15T07:22:24.305Z,96.39
2022-12-15T07:23:39.883Z,96.28
2022-12-15T07:24:24.235Z,96.28
2022-12-15T07:25:24.182Z,96.28
2022-12-15T07:26:24.228Z,96.28
2022-12-15T07:27:24.196Z,96.17
2022-12-15T07:28:25.995Z,96.17
2022-12-15T07:29:24.141Z,96.28
2022-12-15T07:30:24.155Z,96.17
2022-12-15T07:31:24.373Z,96.03
2022-12-15T07:32:24.116Z,96.03
2022-12-15T07:33:24.117Z,96.03
2022-12-15T07:34:24.189Z,96.23
2022-12-15T07:35:24.151Z,96.23
2022-12-15T07:36:24.096Z,96.45
2022-12-15T07:37:24.091Z,96.55
2022-12-15T07:38:24.048Z,96.61
2022-12-15T07:39:24.062Z,96.72
2022-12-15T07:40:24.055Z,96.72
2022-12-15T07:41:24.047Z,96.72
2022-12-15T07:42:24.209Z,96.72
2022-12-15T07:43:24.031Z,96.61
2022-12-15T07:44:24.024Z,96.51
2022-12-15T07:45:24.029Z,96.51
2022-12-15T07:46:24.065Z,96.36
2022-12-15T07:47:24.195Z,96.25
2022-12-15T07:48:23.945Z,96.25
2022-12-15T07:49:23.941Z,96.04
2022-12-15T07:50:23.946Z,96.04
2022-12-15T07:51:24.001Z,95.83
2022-12-15T07:52:23.908Z,95.73
2022-12-15T07:53:23.932Z,95.73
2022-12-15T07:54:23.950Z,95.83
2022-12-15T07:55:43.328Z,95.83
2022-12-15T07:56:23.881Z,95.94
2022-12-15T07:57:23.869Z,95.89
2022-12-15T07:58:23.855Z,95.79
2022-12-15T07:59:23.875Z,95.57
2022-12-15T08:00:23.821Z,95.47
2022-12-15T08:01:24.149Z,95.47
2022-12-15T08:02:24.062Z,95.47
2022-12-15T08:03:23.953Z,95.57
2022-12-15T08:04:23.800Z,95.47
2022-12-15T08:05:23.816Z,95.26
2022-12-15T08:06:23.752Z,95.15
2022-12-15T08:07:23.768Z,95.05
2022-12-15T08:08:23.744Z,94.95
2022-12-15T08:09:23.728Z,94.53
2022-12-15T08:10:24.663Z,94.21
2022-12-15T08:11:23.721Z,94.10
2022-12-15T08:12:23.705Z,93.99
2022-12-15T08:14:00.095Z,93.89
2022-12-15T08:14:24.264Z,93.79
2022-12-15T08:15:23.659Z,93.57
2022-12-15T08:16:23.814Z,93.47
2022-12-15T08:17:23.672Z,93.47
2022-12-15T08:18:23.617Z,93.47
2022-12-15T08:19:23.817Z,93.37
2022-12-15T08:20:23.602Z,93.37
2022-12-15T08:21:23.616Z,93.37
2022-12-15T08:22:23.607Z,93.37
2022-12-15T08:23:23.596Z,93.47
2022-12-15T08:24:23.652Z,93.47
2022-12-15T08:25:23.601Z,93.43
2022-12-15T08:26:28.394Z,93.11
2022-12-15T08:27:23.553Z,92.80
2022-12-15T08:28:23.541Z,92.69
2022-12-15T08:30:23.504Z,92.52
2022-12-15T08:31:23.583Z,92.69
2022-12-15T08:32:23.567Z,92.27
2022-12-15T08:33:23.471Z,92.06
2022-12-15T08:34:23.545Z,92.06
2022-12-15T08:35:54.719Z,92.06
2022-12-15T08:36:23.477Z,92.21
2022-12-15T08:37:33.433Z,92.10
2022-12-15T08:38:23.412Z,92.21
2022-12-15T08:39:23.426Z,92.31
2022-12-15T08:40:23.418Z,92.52
2022-12-15T08:41:23.426Z,92.63
2022-12-15T08:42:23.381Z,92.52
2022-12-15T08:43:23.377Z,92.31
2022-12-15T08:44:23.393Z,92.38
2022-12-15T08:45:23.338Z,92.16
2022-12-15T08:46:23.538Z,91.53
2022-12-15T08:47:23.347Z,91.70
2022-12-15T08:48:23.343Z,91.20
2022-12-15T08:49:23.288Z,89.83
2022-12-15T08:50:23.288Z,88.99
2022-12-15T08:51:23.273Z,88.84
2022-12-15T08:52:23.284Z,88.53
2022-12-15T08:53:31.941Z,88.21
2022-12-15T08:54:23.267Z,87.79
2022-12-15T08:55:23.309Z,87.52
2022-12-15T08:56:23.231Z,87.52
2022-12-15T08:57:23.253Z,87.76
2022-12-15T08:58:23.212Z,88.18
2022-12-15T08:59:23.184Z,88.50
2022-12-15T09:00:24.375Z,88.89
2022-12-15T09:01:24.319Z,88.21
2022-12-15T09:02:23.279Z,86.95
2022-12-15T09:03:23.148Z,86.91
2022-12-15T09:04:23.241Z,86.49
2022-12-15T09:05:23.149Z,86.28
2022-12-15T09:06:23.160Z,86.28
2022-12-15T09:07:23.120Z,86.70
2022-12-15T09:08:23.142Z,86.49
2022-12-15T09:09:23.103Z,85.75
2022-12-15T09:10:23.156Z,85.75
2022-12-15T09:11:23.101Z,85.96
2022-12-15T09:12:23.038Z,86.07
2022-12-15T09:13:23.065Z,85.86
2022-12-15T09:14:29.211Z,86.07
2022-12-15T09:15:39.241Z,86.28
2022-12-15T09:16:23.082Z,86.03
2022-12-15T09:17:23.106Z,85.72
2022-12-15T09:18:23.417Z,85.33
2022-12-15T09:19:23.005Z,85.23
2022-12-15T09:20:22.977Z,86.00
2022-12-15T09:21:23.249Z,86.21
2022-12-15T09:22:23.644Z,86.15
2022-12-15T09:23:24.653Z,86.78
2022-12-15T09:24:33.969Z,87.35
2022-12-15T09:25:22.934Z,87.98
2022-12-15T09:26:23.958Z,88.44
2022-12-15T09:27:22.925Z,88.96
2022-12-15T09:28:22.894Z,88.96
2022-12-15T09:29:22.888Z,89.03
2022-12-15T09:30:22.906Z,89.24
2022-12-15T09:31:23.041Z,89.14
2022-12-15T09:32:22.857Z,89.34
2022-12-15T09:33:23.069Z,89.45
2022-12-15T09:34:22.849Z,89.62
2022-12-15T09:35:22.821Z,88.99
2022-12-15T09:36:22.841Z,88.67
2022-12-15T09:37:22.802Z,88.46
2022-12-15T09:38:22.789Z,88.32
2022-12-15T09:39:22.768Z,87.90
2022-12-15T09:40:22.771Z,87.58
2022-12-15T09:41:23.708Z,86.95
2022-12-15T09:42:22.752Z,87.05
2022-12-15T09:43:46.629Z,87.58
2022-12-15T09:44:23.698Z,87.68
2022-12-15T09:45:22.740Z,87.23
2022-12-15T09:46:22.780Z,87.44
2022-12-15T09:47:22.683Z,87.23
2022-12-15T09:48:22.714Z,87.40
2022-12-15T09:49:22.676Z,86.45
2022-12-15T09:50:23.612Z,85.72
2022-12-15T09:51:22.865Z,85.89
2022-12-15T09:52:22.866Z,85.89
2022-12-15T09:53:53.793Z,84.91
2022-12-15T09:54:22.703Z,84.17
2022-12-15T09:55:22.727Z,84.20
2022-12-15T09:56:22.582Z,84.80
2022-12-15T09:57:22.649Z,84.38
2022-12-15T09:58:22.632Z,83.86
2022-12-15T09:59:23.411Z,82.84
2022-12-15T10:00:22.557Z,83.22
2022-12-15T10:01:22.597Z,83.64
2022-12-15T10:02:22.927Z,84.48
2022-12-15T10:03:23.836Z,83.50
2022-12-15T10:04:22.561Z,83.18
2022-12-15T10:05:22.507Z,82.94
2022-12-15T10:06:25.934Z,82.20
2022-12-15T10:07:22.506Z,81.47
2022-12-15T10:08:22.512Z,81.43
2022-12-15T10:09:22.544Z,80.91
2022-12-15T10:10:22.480Z,80.28
2022-12-15T10:11:22.445Z,80.53
2022-12-15T10:12:22.449Z,80.00
2022-12-15T10:13:22.481Z,80.63
2022-12-15T10:14:22.395Z,81.64
2022-12-15T10:15:22.407Z,81.75
2022-12-15T10:16:22.568Z,80.70
2022-12-15T10:17:22.407Z,79.86
2022-12-15T10:18:22.431Z,79.65
2022-12-15T10:19:22.356Z,79.75
2022-12-15T10:20:22.358Z,80.07
2022-12-15T10:21:22.362Z,81.19
2022-12-15T10:22:22.335Z,80.56
2022-12-15T10:23:22.417Z,80.14
2022-12-15T10:24:59.814Z,79.72
2022-12-15T10:30:51.965Z,80.10
2022-12-15T10:31:52.699Z,79.68
2022-12-15T10:32:54.159Z,80.21
2022-12-15T10:33:52.638Z,80.31
2022-12-15T10:34:52.673Z,79.68
2022-12-15T10:35:52.600Z,79.79
2022-12-15T10:36:52.839Z,80.00
2022-12-15T10:37:52.589Z,79.58
2022-12-15T10:38:52.593Z,79.72
2022-12-15T10:39:52.594Z,79.83
2022-12-15T10:40:52.568Z,80.46
2022-12-15T10:41:52.538Z,80.80
2022-12-15T10:42:52.541Z,80.49
2022-12-15T10:43:52.499Z,81.16
2022-12-15T10:44:52.502Z,81.68
2022-12-15T10:45:52.579Z,81.99
2022-12-15T10:46:52.508Z,82.42
2022-12-15T10:47:52.499Z,82.20
2022-12-15T10:48:52.463Z,82.20
2022-12-15T10:49:52.441Z,81.89
2022-12-15T10:50:52.472Z,82.62
2022-12-15T10:51:52.436Z,82.31
2022-12-15T10:52:52.441Z,82.69
2022-12-15T10:53:52.383Z,82.48
2022-12-15T10:54:52.393Z,81.85
2022-12-15T10:55:52.569Z,81.57
2022-12-15T10:56:52.383Z,81.79
2022-12-15T10:57:52.382Z,81.51
2022-12-15T10:58:52.331Z,82.45
2022-12-15T10:59:52.333Z,82.94
2022-12-15T11:00:52.370Z,83.04
2022-12-15T11:01:52.551Z,81.54
2022-12-15T11:02:52.482Z,80.56
2022-12-15T11:03:52.505Z,79.83
2022-12-15T11:04:52.261Z,78.74
2022-12-15T11:05:52.271Z,77.76
2022-12-15T11:06:52.232Z,77.38
2022-12-15T11:07:52.226Z,76.23
2022-12-15T11:08:52.242Z,75.32
2022-12-15T11:09:52.221Z,74.52
2022-12-15T11:10:52.217Z,71.48
2022-12-15T11:11:52.209Z,69.55
2022-12-15T11:12:52.287Z,66.69
2022-12-15T11:13:52.214Z,62.16
2022-12-15T11:14:52.151Z,59.50
2022-12-15T11:15:52.794Z,59.91
2022-12-15T11:16:52.145Z,60.86
2022-12-15T11:17:53.100Z,63.48
2022-12-15T11:18:56.030Z,64.62
2022-12-15T11:20:13.946Z,63.14
2022-12-15T11:20:52.282Z,63.85
2022-12-15T11:21:53.493Z,65.23
2022-12-15T11:22:53.074Z,65.78
2022-12-15T11:23:52.072Z,65.45
2022-12-15T11:24:52.063Z,63.47
2022-12-15T11:25:52.036Z,62.49
2022-12-15T11:26:52.120Z,59.80
2022-12-15T11:27:52.960Z,56.44
2022-12-15T11:28:51.991Z,55.28
2022-12-15T11:29:52.042Z,54.25
2022-12-15T11:30:52.015Z,56.37
2022-12-15T11:31:52.015Z,58.00
2022-12-15T11:32:52.001Z,59.27
2022-12-15T11:33:51.973Z,58.95
2022-12-15T11:34:51.961Z,59.99
2022-12-15T11:35:51.914Z,61.41
2022-12-15T11:36:51.945Z,59.88
2022-12-15T11:37:51.885Z,57.94
2022-12-15T11:38:52.012Z,55.33
2022-12-15T11:39:51.862Z,55.74
2022-12-15T11:40:51.888Z,55.26
2022-12-15T11:41:51.858Z,55.62
2022-12-15T11:42:51.862Z,56.29
2022-12-15T11:43:51.847Z,57.32
2022-12-15T11:44:52.810Z,57.81
2022-12-15T11:45:51.817Z,56.24
2022-12-15T11:46:52.008Z,55.93
2022-12-15T11:47:51.778Z,56.21
2022-12-15T11:48:52.079Z,57.17
2022-12-15T11:49:51.965Z,54.84
2022-12-15T11:50:52.422Z,53.56
2022-12-15T11:51:51.750Z,53.17
2022-12-15T11:52:51.748Z,52.78
2022-12-15T11:53:52.346Z,52.50
2022-12-15T11:54:51.955Z,52.93
2022-12-15T11:55:55.266Z,53.22
2022-12-15T11:56:55.619Z,53.30
2022-12-15T11:57:52.602Z,53.11
2022-12-15T11:58:51.669Z,55.72
2022-12-15T11:59:51.669Z,54.04
2022-12-15T12:00:51.642Z,53.91
2022-12-15T12:01:56.984Z,54.05
2022-12-15T12:02:51.942Z,53.07
2022-12-15T12:03:51.620Z,51.07
2022-12-15T12:04:51.607Z,51.17
2022-12-15T12:05:51.624Z,52.92
2022-12-15T12:06:51.593Z,50.43
2022-12-15T12:07:51.618Z,49.14
2022-12-15T12:08:51.571Z,48.98
2022-12-15T12:09:51.540Z,50.24
2022-12-15T12:10:51.594Z,50.90
2022-12-15T12:11:51.519Z,52.70
2022-12-15T12:12:51.500Z,52.86
2022-12-15T12:13:51.503Z,52.55
2022-12-15T12:14:51.509Z,52.03
2022-12-15T12:15:51.497Z,52.24
2022-12-15T12:16:51.458Z,51.91
2022-12-15T12:17:52.123Z,52.32
2022-12-15T12:18:51.519Z,52.99
2022-12-15T12:19:51.483Z,52.09
2022-12-15T12:20:51.466Z,49.48
2022-12-15T12:21:51.545Z,48.64
2022-12-15T12:22:51.446Z,51.36
2022-12-15T12:23:51.432Z,50.67
2022-12-15T12:24:51.396Z,46.41
2022-12-15T12:25:51.371Z,44.14
2022-12-15T12:26:51.389Z,44.24
2022-12-15T12:27:51.399Z,46.08
2022-12-15T12:28:51.344Z,46.08
2022-12-15T12:29:51.354Z,45.14
2022-12-15T12:30:51.329Z,47.04
2022-12-15T12:31:51.289Z,43.77
2022-12-15T12:32:51.323Z,42.77
2022-12-15T12:33:51.350Z,43.10
2022-12-15T12:34:51.431Z,44.06
2022-12-15T12:35:51.332Z,44.90
2022-12-15T12:36:51.254Z,45.31
2022-12-15T12:37:51.254Z,44.51
2022-12-15T12:38:51.288Z,45.25
2022-12-15T12:39:51.226Z,46.09
2022-12-15T12:40:52.124Z,46.05
2022-12-15T12:41:51.186Z,46.71
2022-12-15T12:42:51.207Z,48.27
2022-12-15T12:43:51.212Z,48.72
2022-12-15T12:44:51.195Z,48.85
2022-12-15T12:45:51.146Z,50.04
2022-12-15T12:46:51.161Z,49.32
2022-12-15T12:47:51.121Z,49.40
2022-12-15T12:48:51.122Z,49.69
2022-12-15T12:49:51.091Z,49.48
2022-12-15T12:50:51.111Z,49.05
2022-12-15T12:51:51.123Z,49.74
2022-12-15T12:52:51.105Z,47.16
2022-12-15T12:53:51.066Z,46.68
2022-12-15T12:54:51.059Z,45.35
2022-12-15T12:55:51.046Z,45.35
2022-12-15T12:56:51.045Z,45.90
2022-12-15T12:57:51.027Z,46.58
2022-12-15T12:58:51.016Z,47.78
2022-12-15T12:59:50.983Z,49.93
2022-12-15T13:00:56.550Z,51.39